Time;durP1;ratioP1;P1;durP2;ratioP2;P2;SDS_P1;SDS_P2;PMS_P1;PMS_P2;Temp;Humidity;BMP_temperature;BMP_pressure;BME280_temperature;BME280_humidity;BME280_pressure;Samples;Min_cycle;Max_cycle;Signal;HPM_P1;HPM_P2
2022/01/20 00:03:33;;;;;;;;;;;;;;;;;;5015032;28;19949;-67
2022/01/20 00:08:53;;;;;;;;;;;;;;;;;;4995419;28;19925;-67
2022/01/20 00:28:08;;;;;;;;;;;;;;;;;;5014796;28;19921;-67
2022/01/20 00:33:20;;;;;;;;;;;;;;;;;;4994480;28;19922;-67
2022/01/20 00:38:16;;;;;;;;;;;;;;;;;;5014442;28;19921;-67
2022/01/20 00:40:42;;;;;;;;;;;;;;;;;;5014549;28;19971;-69
2022/01/20 00:43:09;;;;;;;;;;;;;;;;;;5014407;28;19921;-69
2022/01/20 00:45:35;;;;;;;;;;;;;;;;;;5013663;28;20351;-67
2022/01/20 00:48:01;;;;;;;;;;;;;;;;;;5014477;28;19925;-67
2022/01/20 00:50:28;;;;;;;;;;;;;;;;;;5014146;28;20323;-67
2022/01/20 00:52:54;;;;;;;;;;;;;;;;;;4998064;28;19922;-69
2022/01/20 00:55:21;;;;;;;;;;;;;;;;;;4994629;28;19921;-67
2022/01/20 00:57:47;;;;;;;;;;;;;;;;;;4994665;28;20171;-68
2022/01/20 01:00:14;;;;;;;;;;;;;;;;;;4994232;28;20364;-67
2022/01/20 01:02:41;;;;;;;;;;;;;;;;;;4994770;28;19937;-68
2022/01/20 01:05:08;;;;;;;;;;;;;;;;;;4994593;28;19922;-68
2022/01/20 01:10:01;;;;;;;;;;;;;;;;;;4994405;28;19926;-69
2022/01/20 01:12:52;;;;;;;;;;;;;;;;;;4994034;28;20332;-68
2022/01/20 01:15:20;;;;;;;;;;;;;;;;;;4994139;28;19929;-67
2022/01/20 01:20:45;;;;;;;;;;;;;;;;;;4993999;28;20384;-67
2022/01/20 01:23:12;;;;;;;;;;;;;;;;;;4993156;28;19976;-67
2022/01/20 01:25:38;;;;;;;;;;;;;;;;;;4994264;28;19922;-67
2022/01/20 01:28:05;;;;;;;;;;;;;;;;;;4994087;28;19922;-67
2022/01/20 01:33:06;;;;;;;;;;;;;;;;;;4993784;28;20324;-69
2022/01/20 01:35:34;;;;;;;;;;;;;;;;;;4993874;28;19973;-67
2022/01/20 01:40:35;;;;;;;;;;;;;;;;;;4993983;28;19922;-67
2022/01/20 01:43:07;;;;;;;;;;;;;;;;;;5008594;28;19926;-66
2022/01/20 01:45:35;;;;;;;;;;;;;;;;;;5012370;28;19929;-67
2022/01/20 01:48:03;;;;;;;;;;;;;;;;;;5013168;28;19926;-67
2022/01/20 01:50:29;;;;;;;;;;;;;;;;;;5013017;28;19976;-67
2022/01/20 01:52:56;;;;;;;;;;;;;;;;;;5013137;28;20036;-68
2022/01/20 01:55:23;;;;;;;;;;;;;;;;;;5011931;28;19921;-67
2022/01/20 01:57:49;;;;;;;;;;;;;;;;;;5013070;28;20431;-67
2022/01/20 02:00:16;;;;;;;;;;;;;;;;;;5012894;28;19921;-67
2022/01/20 02:02:43;;;;;;;;;;;;;;;;;;5000611;28;19922;-67
2022/01/20 02:05:12;;;;;;;;;;;;;;;;;;4993383;28;19921;-67
2022/01/20 02:08:22;;;;;;;;;;;;;;;;;;4993190;28;19921;-68
2022/01/20 02:18:48;;;;;;;;;;;;;;;;;;5012809;28;19922;-69
2022/01/20 02:21:14;;;;;;;;;;;;;;;;;;5012719;28;19922;-67
2022/01/20 02:23:43;;;;;;;;;;;;;;;;;;5012619;28;19921;-68
2022/01/20 02:26:09;;;;;;;;;;;;;;;;;;5012794;28;19967;-68
2022/01/20 02:28:36;;;;;;;;;;;;;;;;;;5009767;28;19988;-67
2022/01/20 02:31:03;;;;;;;;;;;;;;;;;;4992924;28;19925;-67
2022/01/20 02:33:30;;;;;;;;;;;;;;;;;;4992674;28;20021;-69
2022/01/20 02:35:59;;;;;;;;;;;;;;;;;;4992982;28;20355;-67
2022/01/20 02:46:31;;;;;;;;;;;;;;;;;;5012471;28;19987;-68
2022/01/20 02:48:58;;;;;;;;;;;;;;;;;;5012223;28;19928;-67
2022/01/20 02:51:25;;;;;;;;;;;;;;;;;;5012411;28;20342;-68
2022/01/20 02:53:52;;;;;;;;;;;;;;;;;;5012351;28;19925;-67
2022/01/20 02:56:18;;;;;;;;;;;;;;;;;;5012104;28;19925;-68
2022/01/20 02:58:45;;;;;;;;;;;;;;;;;;5007942;28;19925;-69
2022/01/20 03:01:12;;;;;;;;;;;;;;;;;;5011927;28;20307;-68
2022/01/20 03:03:39;;;;;;;;;;;;;;;;;;5012025;28;19964;-68
2022/01/20 03:06:05;;;;;;;;;;;;;;;;;;5012247;28;19975;-67
2022/01/20 03:08:33;;;;;;;;;;;;;;;;;;5012028;28;19976;-67
2022/01/20 03:11:00;;;;;;;;;;;;;;;;;;5011929;28;19922;-67
2022/01/20 03:13:26;;;;;;;;;;;;;;;;;;5012169;28;19925;-69
2022/01/20 03:15:53;;;;;;;;;;;;;;;;;;5012005;28;19925;-67
2022/01/20 03:18:19;;;;;;;;;;;;;;;;;;5011912;28;20016;-67
2022/01/20 03:20:46;;;;;;;;;;;;;;;;;;5011923;28;20347;-67
2022/01/20 03:23:12;;;;;;;;;;;;;;;;;;5014005;28;19930;-67
2022/01/20 03:25:39;;;;;;;;;;;;;;;;;;5030363;28;19975;-67
2022/01/20 03:28:05;;;;;;;;;;;;;;;;;;5031698;28;19921;-67
2022/01/20 03:30:31;;;;;;;;;;;;;;;;;;5031616;28;19929;-67
2022/01/20 03:32:58;;;;;;;;;;;;;;;;;;5031621;28;19967;-67
2022/01/20 03:35:24;;;;;;;;;;;;;;;;;;5031465;28;19924;-67
2022/01/20 03:37:51;;;;;;;;;;;;;;;;;;5031563;28;19947;-69
2022/01/20 03:40:20;;;;;;;;;;;;;;;;;;5031523;28;19920;-67
2022/01/20 03:42:47;;;;;;;;;;;;;;;;;;5031585;28;19921;-67
2022/01/20 03:45:13;;;;;;;;;;;;;;;;;;5031510;28;19921;-68
2022/01/20 03:47:40;;;;;;;;;;;;;;;;;;5031606;28;19921;-67
2022/01/20 03:50:10;;;;;;;;;;;;;;;;;;5031584;28;19921;-67
2022/01/20 03:52:36;;;;;;;;;;;;;;;;;;5031549;28;19967;-67
2022/01/20 03:55:03;;;;;;;;;;;;;;;;;;5025605;28;20396;-67
2022/01/20 03:57:30;;;;;;;;;;;;;;;;;;4995950;28;19929;-69
2022/01/20 03:59:56;;;;;;;;;;;;;;;;;;4991892;28;19976;-68
2022/01/20 04:02:22;;;;;;;;;;;;;;;;;;4991993;28;19926;-67
2022/01/20 04:04:49;;;;;;;;;;;;;;;;;;4992381;28;19926;-67
2022/01/20 04:07:15;;;;;;;;;;;;;;;;;;4992226;28;20443;-67
2022/01/20 04:09:44;;;;;;;;;;;;;;;;;;4995428;28;19972;-69
2022/01/20 04:12:10;;;;;;;;;;;;;;;;;;4994845;28;19984;-68
2022/01/20 04:14:45;;;;;;;;;;;;;;;;;;4995323;28;20455;-67
2022/01/20 04:17:17;;;;;;;;;;;;;;;;;;4995197;28;20278;-69
2022/01/20 04:19:44;;;;;;;;;;;;;;;;;;4995434;28;19922;-67
2022/01/20 04:22:10;;;;;;;;;;;;;;;;;;4995271;28;19949;-69
2022/01/20 04:24:37;;;;;;;;;;;;;;;;;;4995186;28;19976;-68
2022/01/20 04:27:04;;;;;;;;;;;;;;;;;;4995313;28;19926;-67
2022/01/20 04:29:32;;;;;;;;;;;;;;;;;;4995054;28;19925;-70
2022/01/20 04:31:58;;;;;;;;;;;;;;;;;;4995952;28;19984;-69
2022/01/20 04:34:25;;;;;;;;;;;;;;;;;;4997321;28;19922;-67
2022/01/20 04:36:53;;;;;;;;;;;;;;;;;;4995334;28;19925;-68
2022/01/20 04:39:23;;;;;;;;;;;;;;;;;;4995191;28;19976;-67
2022/01/20 04:41:51;;;;;;;;;;;;;;;;;;4995090;28;19968;-67
2022/01/20 04:44:32;;;;;;;;;;;;;;;;;;4994758;28;20410;-67
2022/01/20 04:47:12;;;;;;;;;;;;;;;;;;4994772;28;19925;-68
2022/01/20 04:57:53;;;;;;;;;;;;;;;;;;5014240;28;19925;-67
2022/01/20 05:00:19;;;;;;;;;;;;;;;;;;5009459;28;19983;-68
2022/01/20 05:02:46;;;;;;;;;;;;;;;;;;5014075;28;19922;-67
2022/01/20 05:05:12;;;;;;;;;;;;;;;;;;5014606;28;20343;-68
2022/01/20 05:07:39;;;;;;;;;;;;;;;;;;5014153;28;19922;-67
2022/01/20 05:10:08;;;;;;;;;;;;;;;;;;5013978;28;19921;-69
2022/01/20 05:13:22;;;;;;;;;;;;;;;;;;5013551;28;20384;-67
2022/01/20 05:15:21;;;;;;;;;;;;;;;;;;5006760;28;19921;-68
2022/01/20 05:17:48;;;;;;;;;;;;;;;;;;5022753;28;19948;-69
2022/01/20 05:20:14;;;;;;;;;;;;;;;;;;5023887;28;19926;-69
2022/01/20 05:22:44;;;;;;;;;;;;;;;;;;5024570;28;19924;-68
2022/01/20 05:25:10;;;;;;;;;;;;;;;;;;5047707;28;19975;-70
2022/01/20 05:27:37;;;;;;;;;;;;;;;;;;5044063;28;19944;-69
2022/01/20 05:30:03;;;;;;;;;;;;;;;;;;5044488;28;19925;-69
2022/01/20 05:32:30;;;;;;;;;;;;;;;;;;5044208;28;19983;-68
2022/01/20 05:34:56;;;;;;;;;;;;;;;;;;5043713;28;19943;-70
2022/01/20 05:37:23;;;;;;;;;;;;;;;;;;5042787;28;19925;-69
2022/01/20 05:39:49;;;;;;;;;;;;;;;;;;5027228;28;19922;-69
2022/01/20 05:42:15;;;;;;;;;;;;;;;;;;5022464;28;19968;-68
2022/01/20 05:44:44;;;;;;;;;;;;;;;;;;5022041;28;19921;-68
2022/01/20 05:47:14;;;;;;;;;;;;;;;;;;5021230;28;19921;-68
2022/01/20 05:49:40;;;;;;;;;;;;;;;;;;5018413;28;19921;-67
2022/01/20 05:52:07;;;;;;;;;;;;;;;;;;5013396;28;20347;-70
2022/01/20 05:54:33;;;;;;;;;;;;;;;;;;5013097;28;20360;-68
2022/01/20 05:57:00;;;;;;;;;;;;;;;;;;5013362;28;19921;-67
2022/01/20 05:59:26;;;;;;;;;;;;;;;;;;5012898;28;19925;-67
2022/01/20 06:01:58;;;;;;;;;;;;;;;;;;5013429;28;19925;-69
2022/01/20 06:04:29;;;;;;;;;;;;;;;;;;5013157;28;19971;-68
2022/01/20 06:07:02;;;;;;;;;;;;;;;;;;5013178;28;19967;-67
2022/01/20 06:09:28;;;;;;;;;;;;;;;;;;5012954;28;19960;-66
2022/01/20 06:11:55;;;;;;;;;;;;;;;;;;5013125;28;19922;-67
2022/01/20 06:14:23;;;;;;;;;;;;;;;;;;5012498;28;19921;-68
2022/01/20 06:16:50;;;;;;;;;;;;;;;;;;5012929;28;20273;-67
2022/01/20 06:19:16;;;;;;;;;;;;;;;;;;5012526;28;20004;-66
2022/01/20 06:21:45;;;;;;;;;;;;;;;;;;5013007;28;19976;-66
2022/01/20 06:24:12;;;;;;;;;;;;;;;;;;5012652;28;19991;-65
2022/01/20 06:26:38;;;;;;;;;;;;;;;;;;5012796;28;20414;-66
2022/01/20 06:29:05;;;;;;;;;;;;;;;;;;5010381;28;19967;-67
2022/01/20 06:31:32;;;;;;;;;;;;;;;;;;5010164;28;20615;-67
2022/01/20 06:33:58;;;;;;;;;;;;;;;;;;5010626;28;19968;-68
2022/01/20 06:36:25;;;;;;;;;;;;;;;;;;5010611;28;19929;-66
2022/01/20 06:38:51;;;;;;;;;;;;;;;;;;5010592;28;20443;-66
2022/01/20 06:41:18;;;;;;;;;;;;;;;;;;5009853;28;19976;-65
2022/01/20 06:43:44;;;;;;;;;;;;;;;;;;5010210;28;20355;-67
2022/01/20 06:46:12;;;;;;;;;;;;;;;;;;5010517;28;19928;-67
2022/01/20 06:48:38;;;;;;;;;;;;;;;;;;5010313;28;20304;-66
2022/01/20 06:51:05;;;;;;;;;;;;;;;;;;4999655;28;19922;-66
2022/01/20 06:53:32;;;;;;;;;;;;;;;;;;4990900;28;20045;-67
2022/01/20 06:55:58;;;;;;;;;;;;;;;;;;4990490;28;20411;-67
2022/01/20 06:58:25;;;;;;;;;;;;;;;;;;4990632;28;19925;-67
2022/01/20 07:00:51;;;;;;;;;;;;;;;;;;4990484;28;20270;-67
2022/01/20 07:03:21;;;;;;;;;;;;;;;;;;5001857;28;19921;-68
2022/01/20 07:05:47;;;;;;;;;;;;;;;;;;5010296;28;19921;-67
2022/01/20 07:08:14;;;;;;;;;;;;;;;;;;5009606;28;19971;-66
2022/01/20 07:10:40;;;;;;;;;;;;;;;;;;5010231;28;19975;-67
2022/01/20 07:13:06;;;;;;;;;;;;;;;;;;5009874;28;20442;-67
2022/01/20 07:15:33;;;;;;;;;;;;;;;;;;5007354;28;19931;-69
2022/01/20 07:17:59;;;;;;;;;;;;;;;;;;5010035;28;19968;-67
2022/01/20 07:20:26;;;;;;;;;;;;;;;;;;5009756;28;19976;-67
2022/01/20 07:22:52;;;;;;;;;;;;;;;;;;5010121;28;19921;-66
2022/01/20 07:25:19;;;;;;;;;;;;;;;;;;5009876;28;19925;-66
2022/01/20 07:27:45;;;;;;;;;;;;;;;;;;5007093;28;19925;-68
2022/01/20 07:30:26;;;;;;;;;;;;;;;;;;5010004;28;19928;-67
2022/01/20 07:32:52;;;;;;;;;;;;;;;;;;5010174;28;19928;-67
2022/01/20 07:35:19;;;;;;;;;;;;;;;;;;5009690;28;20300;-67
2022/01/20 07:37:46;;;;;;;;;;;;;;;;;;5009924;28;19925;-69
2022/01/20 07:40:13;;;;;;;;;;;;;;;;;;5009752;28;19922;-68
2022/01/20 07:42:40;;;;;;;;;;;;;;;;;;5010398;28;19925;-67
2022/01/20 07:45:06;;;;;;;;;;;;;;;;;;5013601;28;20422;-66
2022/01/20 07:47:34;;;;;;;;;;;;;;;;;;5012672;28;19996;-66
2022/01/20 07:50:01;;;;;;;;;;;;;;;;;;5013625;28;19922;-67
2022/01/20 07:52:27;;;;;;;;;;;;;;;;;;4993963;28;19925;-66
2022/01/20 07:54:54;;;;;;;;;;;;;;;;;;4993815;28;19988;-66
2022/01/20 07:57:20;;;;;;;;;;;;;;;;;;4993571;28;19925;-68
2022/01/20 07:59:46;;;;;;;;;;;;;;;;;;4993001;28;20289;-67
2022/01/20 08:02:16;;;;;;;;;;;;;;;;;;4994974;28;20004;-66
2022/01/20 08:04:42;;;;;;;;;;;;;;;;;;4994280;28;19932;-69
2022/01/20 08:07:09;;;;;;;;;;;;;;;;;;4993672;28;19925;-66
2022/01/20 08:09:36;;;;;;;;;;;;;;;;;;4993446;28;20245;-66
2022/01/20 08:12:20;;;;;;;;;;;;;;;;;;4993284;28;20616;-67
2022/01/20 08:14:46;;;;;;;;;;;;;;;;;;4996366;28;19976;-67
2022/01/20 08:17:13;;;;;;;;;;;;;;;;;;5013047;28;19921;-66
2022/01/20 08:19:39;;;;;;;;;;;;;;;;;;5013062;28;19937;-67
2022/01/20 08:22:06;;;;;;;;;;;;;;;;;;5011215;28;20388;-71
2022/01/20 08:24:52;;;;;;;;;;;;;;;;;;5007085;28;20425;-71
2022/01/20 08:27:19;;;;;;;;;;;;;;;;;;5011944;28;19925;-68
2022/01/20 08:29:46;;;;;;;;;;;;;;;;;;5011447;28;19988;-65
2022/01/20 08:32:12;;;;;;;;;;;;;;;;;;4998976;28;19970;-67
2022/01/20 08:34:39;;;;;;;;;;;;;;;;;;5002869;28;19948;-66
2022/01/20 08:37:05;;;;;;;;;;;;;;;;;;5001287;28;19929;-67
2022/01/20 08:41:59;;;;;;;;;;;;;;;;;;5001212;28;19929;-66
2022/01/20 08:44:26;;;;;;;;;;;;;;;;;;5001728;28;20439;-66
2022/01/20 08:46:53;;;;;;;;;;;;;;;;;;5001381;28;19925;-66
2022/01/20 08:49:20;;;;;;;;;;;;;;;;;;4999930;28;19981;-65
2022/01/20 08:51:46;;;;;;;;;;;;;;;;;;5004738;28;19921;-67
2022/01/20 08:54:13;;;;;;;;;;;;;;;;;;4999170;28;19925;-66
2022/01/20 08:56:40;;;;;;;;;;;;;;;;;;5000101;28;19983;-67
2022/01/20 08:59:07;;;;;;;;;;;;;;;;;;5000527;28;19990;-67
2022/01/20 09:01:34;;;;;;;;;;;;;;;;;;5003425;28;20340;-66
2022/01/20 09:04:00;;;;;;;;;;;;;;;;;;5015927;28;20020;-66
2022/01/20 09:06:27;;;;;;;;;;;;;;;;;;4999854;28;19925;-67
2022/01/20 09:08:53;;;;;;;;;;;;;;;;;;5001088;28;19925;-67
2022/01/20 09:11:22;;;;;;;;;;;;;;;;;;4998974;28;20054;-66
2022/01/20 09:16:35;;;;;;;;;;;;;;;;;;5000890;28;19925;-67
2022/01/20 09:19:01;;;;;;;;;;;;;;;;;;5004892;28;19921;-68
2022/01/20 09:21:31;;;;;;;;;;;;;;;;;;5003590;28;19926;-66
2022/01/20 09:23:58;;;;;;;;;;;;;;;;;;4999050;28;19922;-67
2022/01/20 09:26:24;;;;;;;;;;;;;;;;;;5000661;28;19934;-64
2022/01/20 09:28:51;;;;;;;;;;;;;;;;;;5002136;28;19976;-66
2022/01/20 09:31:18;;;;;;;;;;;;;;;;;;5000638;28;19925;-65
2022/01/20 09:33:45;;;;;;;;;;;;;;;;;;4997658;28;20389;-66
2022/01/20 09:36:12;;;;;;;;;;;;;;;;;;5001193;28;19921;-70
2022/01/20 09:38:39;;;;;;;;;;;;;;;;;;5000203;28;19925;-68
2022/01/20 09:41:05;;;;;;;;;;;;;;;;;;5011199;28;19925;-66
2022/01/20 09:43:32;;;;;;;;;;;;;;;;;;4998889;28;19925;-70
2022/01/20 09:45:58;;;;;;;;;;;;;;;;;;4999995;28;19963;-68
2022/01/20 09:48:25;;;;;;;;;;;;;;;;;;5000162;28;19930;-67
2022/01/20 09:50:52;;;;;;;;;;;;;;;;;;4999863;28;19926;-66
2022/01/20 09:53:19;;;;;;;;;;;;;;;;;;4999459;28;19925;-67
2022/01/20 09:55:46;;;;;;;;;;;;;;;;;;4998843;28;19972;-67
2022/01/20 09:58:13;;;;;;;;;;;;;;;;;;5001249;28;19959;-66
2022/01/20 10:00:40;;;;;;;;;;;;;;;;;;5002656;28;20052;-67
2022/01/20 10:03:12;;;;;;;;;;;;;;;;;;5001824;28;19929;-69
2022/01/20 10:05:47;;;;;;;;;;;;;;;;;;5000956;28;19921;-68
2022/01/20 10:08:18;;;;;;;;;;;;;;;;;;5007663;28;19979;-67
2022/01/20 10:11:00;;;;;;;;;;;;;;;;;;5000406;28;19925;-68
2022/01/20 10:13:28;;;;;;;;;;;;;;;;;;5001711;28;19929;-69
2022/01/20 10:16:00;;;;;;;;;;;;;;;;;;5001713;28;20458;-68
2022/01/20 10:18:27;;;;;;;;;;;;;;;;;;4999259;28;19960;-70
2022/01/20 10:20:57;;;;;;;;;;;;;;;;;;5000754;28;19968;-69
2022/01/20 10:23:30;;;;;;;;;;;;;;;;;;4999836;28;20155;-69
2022/01/20 10:26:12;;;;;;;;;;;;;;;;;;4998513;28;19929;-69
2022/01/20 10:28:45;;;;;;;;;;;;;;;;;;5003425;28;19921;-68
2022/01/20 10:31:12;;;;;;;;;;;;;;;;;;5001630;28;19921;-68
2022/01/20 10:33:39;;;;;;;;;;;;;;;;;;4997894;28;20003;-67
2022/01/20 10:36:07;;;;;;;;;;;;;;;;;;5004370;28;19921;-68
2022/01/20 10:38:33;;;;;;;;;;;;;;;;;;5001997;28;19925;-68
2022/01/20 10:41:00;;;;;;;;;;;;;;;;;;5003907;28;19975;-69
2022/01/20 10:43:28;;;;;;;;;;;;;;;;;;4998175;28;19929;-67
2022/01/20 10:46:04;;;;;;;;;;;;;;;;;;5003713;28;20020;-67
2022/01/20 10:48:31;;;;;;;;;;;;;;;;;;5000708;28;19971;-66
2022/01/20 10:50:57;;;;;;;;;;;;;;;;;;5001122;28;19988;-67
2022/01/20 10:53:24;;;;;;;;;;;;;;;;;;4995702;28;19925;-67
2022/01/20 10:55:51;;;;;;;;;;;;;;;;;;5001011;28;19921;-67
2022/01/20 10:58:22;;;;;;;;;;;;;;;;;;5000195;28;19928;-68
2022/01/20 11:00:52;;;;;;;;;;;;;;;;;;5001521;28;19922;-67
2022/01/20 11:03:19;;;;;;;;;;;;;;;;;;5000521;28;19921;-68
2022/01/20 11:05:49;;;;;;;;;;;;;;;;;;4998467;28;20431;-67
2022/01/20 11:08:16;;;;;;;;;;;;;;;;;;5000789;28;19921;-68
2022/01/20 11:10:43;;;;;;;;;;;;;;;;;;5000591;28;19921;-68
2022/01/20 11:13:10;;;;;;;;;;;;;;;;;;5001424;28;19953;-66
2022/01/20 11:15:36;;;;;;;;;;;;;;;;;;5004501;28;19926;-67
2022/01/20 11:18:03;;;;;;;;;;;;;;;;;;5004571;28;19928;-68
2022/01/20 11:20:32;;;;;;;;;;;;;;;;;;5008417;28;19925;-67
2022/01/20 11:23:00;;;;;;;;;;;;;;;;;;5016784;28;19922;-66
2022/01/20 11:25:28;;;;;;;;;;;;;;;;;;5021524;28;19979;-66
2022/01/20 11:28:03;;;;;;;;;;;;;;;;;;5004665;28;19938;-66
2022/01/20 11:30:31;;;;;;;;;;;;;;;;;;5002075;28;19987;-67
2022/01/20 11:33:05;;;;;;;;;;;;;;;;;;5000862;28;20021;-67
2022/01/20 11:35:42;;;;;;;;;;;;;;;;;;5003274;28;19921;-66
2022/01/20 11:38:09;;;;;;;;;;;;;;;;;;5004578;28;19976;-67
2022/01/20 11:40:47;;;;;;;;;;;;;;;;;;4999913;28;20612;-66
2022/01/20 11:43:14;;;;;;;;;;;;;;;;;;4998663;28;19926;-67
2022/01/20 11:45:50;;;;;;;;;;;;;;;;;;4999140;28;19922;-66
2022/01/20 11:48:21;;;;;;;;;;;;;;;;;;5002442;28;20369;-66
2022/01/20 11:51:01;;;;;;;;;;;;;;;;;;5000043;28;19921;-66
2022/01/20 11:53:27;;;;;;;;;;;;;;;;;;5002876;28;19925;-66
2022/01/20 11:55:54;;;;;;;;;;;;;;;;;;4999000;28;19980;-66
2022/01/20 11:58:21;;;;;;;;;;;;;;;;;;5000847;28;19932;-66
2022/01/20 12:01:04;;;;;;;;;;;;;;;;;;4999089;28;20270;-66
2022/01/20 12:03:31;;;;;;;;;;;;;;;;;;4998047;28;19933;-66
2022/01/20 12:05:59;;;;;;;;;;;;;;;;;;4998585;28;20012;-66
2022/01/20 12:08:25;;;;;;;;;;;;;;;;;;4998008;28;19922;-67
2022/01/20 12:10:59;;;;;;;;;;;;;;;;;;4997438;28;19979;-67
2022/01/20 12:13:25;;;;;;;;;;;;;;;;;;5000001;28;20372;-66
2022/01/20 12:15:53;;;;;;;;;;;;;;;;;;5000136;28;19921;-67
2022/01/20 12:18:19;;;;;;;;;;;;;;;;;;4999218;28;20057;-65
2022/01/20 12:20:46;;;;;;;;;;;;;;;;;;4998771;28;19992;-69
2022/01/20 12:23:12;;;;;;;;;;;;;;;;;;5000024;28;20026;-68
2022/01/20 12:25:39;;;;;;;;;;;;;;;;;;5001464;28;20339;-67
2022/01/20 12:28:07;;;;;;;;;;;;;;;;;;4999314;28;20404;-67
2022/01/20 12:30:36;;;;;;;;;;;;;;;;;;4997948;28;19922;-65
2022/01/20 12:33:02;;;;;;;;;;;;;;;;;;5002189;28;20212;-70
2022/01/20 12:35:41;;;;;;;;;;;;;;;;;;4999679;28;19925;-67
2022/01/20 12:38:28;;;;;;;;;;;;;;;;;;5003548;28;19968;-68
2022/01/20 12:40:59;;;;;;;;;;;;;;;;;;5001718;28;19925;-65
2022/01/20 12:43:35;;;;;;;;;;;;;;;;;;4999784;28;19925;-68
2022/01/20 12:46:01;;;;;;;;;;;;;;;;;;5000135;28;19991;-67
2022/01/20 12:48:28;;;;;;;;;;;;;;;;;;5001207;28;19973;-66
2022/01/20 12:51:00;;;;;;;;;;;;;;;;;;4999342;28;20184;-66
2022/01/20 12:53:33;;;;;;;;;;;;;;;;;;5002623;28;19922;-66
2022/01/20 12:56:00;;;;;;;;;;;;;;;;;;5000257;28;19925;-65
2022/01/20 12:58:26;;;;;;;;;;;;;;;;;;5000760;28;19976;-69
2022/01/20 13:00:59;;;;;;;;;;;;;;;;;;5000374;28;20389;-65
2022/01/20 13:03:39;;;;;;;;;;;;;;;;;;4999751;28;19976;-65
2022/01/20 13:06:06;;;;;;;;;;;;;;;;;;5001358;28;20034;-65
2022/01/20 13:08:38;;;;;;;;;;;;;;;;;;4999626;28;19968;-63
2022/01/20 13:11:15;;;;;;;;;;;;;;;;;;5002877;28;20340;-64
2022/01/20 13:13:51;;;;;;;;;;;;;;;;;;5000902;28;19933;-64
2022/01/20 13:16:17;;;;;;;;;;;;;;;;;;4999897;28;19949;-65
2022/01/20 13:18:54;;;;;;;;;;;;;;;;;;5021513;28;19925;-67
2022/01/20 13:21:25;;;;;;;;;;;;;;;;;;5003764;28;19929;-68
2022/01/20 13:23:55;;;;;;;;;;;;;;;;;;4999249;28;20110;-70
2022/01/20 13:26:21;;;;;;;;;;;;;;;;;;5001466;28;19921;-71
2022/01/20 13:29:02;;;;;;;;;;;;;;;;;;4999151;28;19991;-67
2022/01/20 13:31:37;;;;;;;;;;;;;;;;;;4999146;28;20110;-66
2022/01/20 13:34:08;;;;;;;;;;;;;;;;;;5000839;28;19925;-65
2022/01/20 13:36:38;;;;;;;;;;;;;;;;;;4999041;28;19925;-67
2022/01/20 13:39:05;;;;;;;;;;;;;;;;;;5001893;28;20446;-66
2022/01/20 13:41:31;;;;;;;;;;;;;;;;;;5003282;28;20341;-65
2022/01/20 13:46:44;;;;;;;;;;;;;;;;;;5003677;28;19922;-65
2022/01/20 13:49:13;;;;;;;;;;;;;;;;;;4999123;28;19925;-66
2022/01/20 13:51:39;;;;;;;;;;;;;;;;;;4999511;28;19976;-65
2022/01/20 13:54:06;;;;;;;;;;;;;;;;;;4999619;28;19926;-69
2022/01/20 13:56:32;;;;;;;;;;;;;;;;;;4999309;28;19980;-65
2022/01/20 13:59:03;;;;;;;;;;;;;;;;;;5000059;28;19921;-67
2022/01/20 14:01:45;;;;;;;;;;;;;;;;;;4998957;28;19925;-67
2022/01/20 14:04:11;;;;;;;;;;;;;;;;;;4999009;28;19921;-67
2022/01/20 14:06:38;;;;;;;;;;;;;;;;;;4999178;28;19930;-65
2022/01/20 14:09:04;;;;;;;;;;;;;;;;;;5003001;28;19979;-66
2022/01/20 14:11:31;;;;;;;;;;;;;;;;;;5000396;28;19933;-65
2022/01/20 14:13:57;;;;;;;;;;;;;;;;;;4998796;28;19922;-67
2022/01/20 14:16:24;;;;;;;;;;;;;;;;;;5001161;28;20392;-66
2022/01/20 14:18:57;;;;;;;;;;;;;;;;;;4998236;28;19968;-66
2022/01/20 14:21:24;;;;;;;;;;;;;;;;;;4999916;28;19976;-67
2022/01/20 14:23:52;;;;;;;;;;;;;;;;;;5001077;28;19928;-66
2022/01/20 14:26:28;;;;;;;;;;;;;;;;;;5000940;28;19925;-66
2022/01/20 14:28:55;;;;;;;;;;;;;;;;;;5001450;28;19925;-66
2022/01/20 14:31:21;;;;;;;;;;;;;;;;;;4998696;28;19988;-65
2022/01/20 14:33:47;;;;;;;;;;;;;;;;;;4999568;28;19928;-67
2022/01/20 14:36:15;;;;;;;;;;;;;;;;;;4997713;28;19926;-67
2022/01/20 14:38:42;;;;;;;;;;;;;;;;;;4999827;28;19922;-66
2022/01/20 14:41:13;;;;;;;;;;;;;;;;;;5002361;28;19943;-67
2022/01/20 14:43:39;;;;;;;;;;;;;;;;;;4999349;28;19926;-67
2022/01/20 14:46:08;;;;;;;;;;;;;;;;;;4997737;28;20347;-67
2022/01/20 14:48:35;;;;;;;;;;;;;;;;;;4999098;28;19979;-67
2022/01/20 14:51:04;;;;;;;;;;;;;;;;;;5000848;28;19925;-67
2022/01/20 14:53:31;;;;;;;;;;;;;;;;;;4999792;28;20289;-66
2022/01/20 14:56:00;;;;;;;;;;;;;;;;;;5001485;28;20467;-67
2022/01/20 14:58:27;;;;;;;;;;;;;;;;;;4997603;28;19929;-65
2022/01/20 15:00:53;;;;;;;;;;;;;;;;;;4998911;28;20020;-64
2022/01/20 15:03:20;;;;;;;;;;;;;;;;;;4996972;28;19929;-65
2022/01/20 15:05:47;;;;;;;;;;;;;;;;;;5001615;28;19932;-66
2022/01/20 15:08:14;;;;;;;;;;;;;;;;;;4995779;28;20385;-67
2022/01/20 15:10:42;;;;;;;;;;;;;;;;;;4997540;28;20100;-66
2022/01/20 15:13:09;;;;;;;;;;;;;;;;;;4997371;28;19992;-65
2022/01/20 15:15:36;;;;;;;;;;;;;;;;;;4999266;28;20341;-71
2022/01/20 15:18:03;;;;;;;;;;;;;;;;;;4997541;28;19921;-64
2022/01/20 15:20:50;;;;;;;;;;;;;;;;;;5000034;28;19944;-69
2022/01/20 15:23:17;;;;;;;;;;;;;;;;;;5003114;28;19922;-66
2022/01/20 15:25:44;;;;;;;;;;;;;;;;;;4999982;28;19921;-68
2022/01/20 15:28:11;;;;;;;;;;;;;;;;;;5003153;28;19928;-67
2022/01/20 15:30:37;;;;;;;;;;;;;;;;;;4997586;28;19968;-67
2022/01/20 15:33:03;;;;;;;;;;;;;;;;;;4999393;28;19921;-70
2022/01/20 15:35:30;;;;;;;;;;;;;;;;;;5002075;28;19985;-71
2022/01/20 15:37:56;;;;;;;;;;;;;;;;;;4998310;28;19925;-72
2022/01/20 15:40:23;;;;;;;;;;;;;;;;;;4997547;28;19976;-72
2022/01/20 15:42:49;;;;;;;;;;;;;;;;;;5002287;28;19921;-73
2022/01/20 15:45:16;;;;;;;;;;;;;;;;;;4997861;28;19930;-71
2022/01/20 15:47:42;;;;;;;;;;;;;;;;;;4998659;28;19925;-71
2022/01/20 15:50:10;;;;;;;;;;;;;;;;;;4998408;28;19930;-67
2022/01/20 15:52:36;;;;;;;;;;;;;;;;;;5000134;28;19953;-72
2022/01/20 15:55:03;;;;;;;;;;;;;;;;;;5011790;28;19976;-70
2022/01/20 15:57:30;;;;;;;;;;;;;;;;;;4996017;28;20029;-66
2022/01/20 15:59:56;;;;;;;;;;;;;;;;;;4998726;28;19926;-67
2022/01/20 16:02:23;;;;;;;;;;;;;;;;;;4999795;28;20347;-66
2022/01/20 16:04:49;;;;;;;;;;;;;;;;;;5001538;28;19925;-66
2022/01/20 16:07:18;;;;;;;;;;;;;;;;;;5000484;28;19983;-67
2022/01/20 16:09:45;;;;;;;;;;;;;;;;;;5004721;28;19928;-68
2022/01/20 16:12:12;;;;;;;;;;;;;;;;;;5002966;28;19922;-67
2022/01/20 16:14:39;;;;;;;;;;;;;;;;;;5001919;28;19976;-65
2022/01/20 16:17:06;;;;;;;;;;;;;;;;;;5002339;28;20521;-66
2022/01/20 16:19:33;;;;;;;;;;;;;;;;;;5000038;28;19926;-65
2022/01/20 16:22:03;;;;;;;;;;;;;;;;;;5004757;28;19929;-68
2022/01/20 16:24:30;;;;;;;;;;;;;;;;;;5001004;28;19925;-67
2022/01/20 16:26:56;;;;;;;;;;;;;;;;;;5020152;28;19925;-66
2022/01/20 16:29:23;;;;;;;;;;;;;;;;;;5002383;28;19921;-67
2022/01/20 16:31:49;;;;;;;;;;;;;;;;;;5001786;28;19921;-67
2022/01/20 16:34:16;;;;;;;;;;;;;;;;;;5006706;28;19929;-68
2022/01/20 16:36:42;;;;;;;;;;;;;;;;;;5002274;28;19925;-69
2022/01/20 16:39:11;;;;;;;;;;;;;;;;;;4997696;28;20051;-69
2022/01/20 16:41:38;;;;;;;;;;;;;;;;;;5003512;28;19992;-70
2022/01/20 16:44:05;;;;;;;;;;;;;;;;;;5002973;28;19925;-70
2022/01/20 16:46:31;;;;;;;;;;;;;;;;;;5005220;28;20349;-72
2022/01/20 16:48:59;;;;;;;;;;;;;;;;;;4999952;28;19929;-70
2022/01/20 16:51:26;;;;;;;;;;;;;;;;;;5001742;28;19949;-71
2022/01/20 16:53:53;;;;;;;;;;;;;;;;;;5000978;28;19921;-65
2022/01/20 16:56:20;;;;;;;;;;;;;;;;;;5002532;28;19921;-66
2022/01/20 16:58:46;;;;;;;;;;;;;;;;;;5000357;28;19929;-68
2022/01/20 17:01:12;;;;;;;;;;;;;;;;;;5001079;28;19921;-66
2022/01/20 17:03:39;;;;;;;;;;;;;;;;;;5000355;28;19926;-65
2022/01/20 17:06:05;;;;;;;;;;;;;;;;;;4997906;28;19930;-66
2022/01/20 17:08:32;;;;;;;;;;;;;;;;;;5000331;28;19937;-65
2022/01/20 17:10:58;;;;;;;;;;;;;;;;;;5001496;28;19972;-65
2022/01/20 17:13:25;;;;;;;;;;;;;;;;;;4999151;28;19921;-64
2022/01/20 17:15:53;;;;;;;;;;;;;;;;;;4997039;28;20347;-65
2022/01/20 17:18:20;;;;;;;;;;;;;;;;;;4999050;28;20448;-66
2022/01/20 17:20:47;;;;;;;;;;;;;;;;;;4997912;28;19929;-67
2022/01/20 17:23:14;;;;;;;;;;;;;;;;;;4999004;28;19925;-65
2022/01/20 17:25:40;;;;;;;;;;;;;;;;;;4997610;28;20064;-66
2022/01/20 17:28:07;;;;;;;;;;;;;;;;;;5003070;28;19952;-65
2022/01/20 17:30:34;;;;;;;;;;;;;;;;;;5013069;28;19929;-67
2022/01/20 17:33:00;;;;;;;;;;;;;;;;;;5000478;28;19921;-65
2022/01/20 17:35:27;;;;;;;;;;;;;;;;;;4997431;28;19926;-66
2022/01/20 17:37:53;;;;;;;;;;;;;;;;;;4996608;28;19925;-67
2022/01/20 17:40:20;;;;;;;;;;;;;;;;;;4999404;28;20376;-67
2022/01/20 17:42:46;;;;;;;;;;;;;;;;;;4998484;28;19929;-66
2022/01/20 17:45:13;;;;;;;;;;;;;;;;;;4997435;28;19929;-67
2022/01/20 17:47:40;;;;;;;;;;;;;;;;;;4997982;28;19965;-66
2022/01/20 17:50:07;;;;;;;;;;;;;;;;;;5000734;28;19929;-65
2022/01/20 17:52:36;;;;;;;;;;;;;;;;;;4998685;28;20467;-66
2022/01/20 17:55:02;;;;;;;;;;;;;;;;;;4997114;28;19926;-66
2022/01/20 17:57:29;;;;;;;;;;;;;;;;;;4996353;28;19922;-67
2022/01/20 17:59:55;;;;;;;;;;;;;;;;;;4999719;28;19925;-65
2022/01/20 18:02:22;;;;;;;;;;;;;;;;;;4996822;28;19921;-65